createdAt,value
2023-04-07T00:00:24.382Z,101422.06
2023-04-07T00:02:50.767Z,101416.00
2023-04-07T00:05:17.234Z,101412.47
2023-04-07T00:07:55.102Z,101419.31
2023-04-07T00:10:23.112Z,101416.72
2023-04-07T00:12:49.431Z,101411.41
2023-04-07T00:15:16.085Z,101419.09
2023-04-07T00:17:42.443Z,101419.81
2023-04-07T00:20:09.472Z,101419.78
2023-04-07T00:22:35.944Z,101420.63
2023-04-07T00:25:02.301Z,101411.94
2023-04-07T00:27:28.750Z,101411.03
2023-04-07T00:29:55.431Z,101418.75
2023-04-07T00:32:22.442Z,101415.22
2023-04-07T00:34:48.817Z,101414.31
2023-04-07T00:37:15.134Z,101423.75
2023-04-07T00:39:41.456Z,101417.69
2023-04-07T00:42:07.922Z,101410.81
2023-04-07T00:44:34.323Z,101409.97
2023-04-07T00:47:01.133Z,101412.44
2023-04-07T00:49:28.456Z,101412.31
2023-04-07T00:51:56.075Z,101414.91
2023-04-07T00:54:24.092Z,101420.13
2023-04-07T00:56:50.870Z,101414.84
2023-04-07T00:59:17.296Z,101424.22
2023-04-07T01:02:02.923Z,101413.06
2023-04-07T01:04:45.216Z,101416.50
2023-04-07T01:07:17.901Z,101410.38
2023-04-07T01:10:00.413Z,101411.25
2023-04-07T01:12:47.404Z,101411.19
2023-04-07T01:15:16.231Z,101409.41
2023-04-07T01:17:48.118Z,101412.06
2023-04-07T01:20:19.535Z,101421.44
2023-04-07T01:22:51.095Z,101413.59
2023-04-07T01:25:28.448Z,101410.16
2023-04-07T01:27:57.508Z,101409.31
2023-04-07T01:30:26.346Z,101410.09
2023-04-07T01:32:53.748Z,101413.59
2023-04-07T01:35:22.267Z,101413.59
2023-04-07T01:37:50.667Z,101414.50
2023-04-07T01:40:18.027Z,101411.00
2023-04-07T01:42:46.998Z,101408.44
2023-04-07T01:45:16.166Z,101411.75
2023-04-07T01:47:43.719Z,101410.09
2023-04-07T01:50:11.487Z,101409.25
2023-04-07T01:52:39.962Z,101411.69
2023-04-07T01:55:07.009Z,101413.47
2023-04-07T01:57:33.495Z,101415.03
2023-04-07T01:59:59.814Z,101414.28
2023-04-07T02:02:26.522Z,101409.13
2023-04-07T02:04:58.288Z,101416.03
2023-04-07T02:07:55.704Z,101414.22
2023-04-07T02:10:25.369Z,101415.13
2023-04-07T02:12:53.166Z,101414.22
2023-04-07T02:15:19.671Z,101413.34
2023-04-07T02:17:49.723Z,101414.22
2023-04-07T02:20:17.665Z,101414.28
2023-04-07T02:22:44.707Z,101414.03
2023-04-07T02:25:28.440Z,101412.38
2023-04-07T02:27:56.437Z,101409.75
2023-04-07T02:30:23.797Z,101414.75
2023-04-07T02:32:50.377Z,101415.69
2023-04-07T02:35:16.912Z,101414.94
2023-04-07T02:37:44.316Z,101411.44
2023-04-07T02:40:10.974Z,101417.41
2023-04-07T02:42:37.446Z,101420.81
2023-04-07T02:45:05.111Z,101429.38
2023-04-07T02:47:31.731Z,101422.69
2023-04-07T02:49:58.093Z,101428.78
2023-04-07T02:52:24.341Z,101423.44
2023-04-07T02:54:51.049Z,101428.53
2023-04-07T02:57:17.413Z,101427.59
2023-04-07T02:59:43.704Z,101421.75
2023-04-07T03:02:10.542Z,101422.56
2023-04-07T03:04:37.032Z,101422.44
2023-04-07T03:07:03.287Z,101426.75
2023-04-07T03:09:29.630Z,101425.94
2023-04-07T03:11:56.046Z,101419.13
2023-04-07T03:14:22.510Z,101429.31
2023-04-07T03:16:48.800Z,101429.38
2023-04-07T03:19:16.185Z,101424.09
2023-04-07T03:21:42.696Z,101427.53
2023-04-07T03:24:09.095Z,101430.16
2023-04-07T03:26:35.485Z,101421.56
2023-04-07T03:29:01.778Z,101423.31
2023-04-07T03:31:28.302Z,101427.53
2023-04-07T03:33:54.660Z,101431.78
2023-04-07T03:36:20.988Z,101428.41
2023-04-07T03:38:47.973Z,101426.63
2023-04-07T03:41:14.273Z,101436.72
2023-04-07T03:43:41.161Z,101428.16
2023-04-07T03:46:07.670Z,101430.53
2023-04-07T03:48:33.994Z,101429.41
2023-04-07T03:51:00.257Z,101433.75
2023-04-07T03:53:27.052Z,101435.34
2023-04-07T03:55:53.558Z,101439.69
2023-04-07T03:58:19.885Z,101443.88
2023-04-07T04:00:46.405Z,101446.31
2023-04-07T04:03:12.737Z,101453.81
2023-04-07T04:05:40.357Z,101447.72
2023-04-07T04:08:07.047Z,101454.59
2023-04-07T04:10:33.321Z,101451.13
2023-04-07T04:13:04.473Z,101460.34
2023-04-07T04:15:31.057Z,101460.25
2023-04-07T04:17:57.409Z,101465.31
2023-04-07T04:20:23.706Z,101457.53
2023-04-07T04:22:50.009Z,101467.81
2023-04-07T04:25:17.361Z,101475.28
2023-04-07T04:27:43.717Z,101474.06
2023-04-07T04:30:10.143Z,101481.56
2023-04-07T04:32:36.511Z,101466.78
2023-04-07T04:35:02.883Z,101466.66
2023-04-07T04:37:29.186Z,101474.41
2023-04-07T04:39:55.491Z,101487.19
2023-04-07T04:42:21.894Z,101478.63
2023-04-07T04:44:48.135Z,101492.41
2023-04-07T04:47:14.505Z,101493.34
2023-04-07T04:49:41.350Z,101495.91
2023-04-07T04:52:08.080Z,101491.50
2023-04-07T04:54:34.405Z,101494.13
2023-04-07T04:57:01.577Z,101505.34
2023-04-07T04:59:27.921Z,101497.72
2023-04-07T05:01:54.660Z,101504.28
2023-04-07T05:04:21.573Z,101511.63
2023-04-07T05:06:48.016Z,101510.53
2023-04-07T05:09:14.330Z,101511.22
2023-04-07T05:11:41.279Z,101517.28
2023-04-07T05:14:07.619Z,101522.34
2023-04-07T05:16:34.663Z,101522.53
2023-04-07T05:19:01.213Z,101534.47
2023-04-07T05:21:27.550Z,101529.47
2023-04-07T05:23:54.250Z,101531.03
2023-04-07T05:26:21.496Z,101521.59
2023-04-07T05:28:47.777Z,101529.47
2023-04-07T05:31:14.339Z,101536.56
2023-04-07T05:33:40.874Z,101532.50
2023-04-07T05:36:07.547Z,101534.47
2023-04-07T05:38:33.939Z,101546.78
2023-04-07T05:41:00.514Z,101544.44
2023-04-07T05:43:26.786Z,101545.53
2023-04-07T05:45:53.118Z,101543.94
2023-04-07T05:48:19.427Z,101553.69
2023-04-07T05:50:45.827Z,101543.50
2023-04-07T05:53:12.167Z,101554.00
2023-04-07T05:55:38.467Z,101552.56
2023-04-07T05:58:05.159Z,101560.53
2023-04-07T06:00:31.438Z,101558.97
2023-04-07T06:02:57.898Z,101560.03
2023-04-07T06:05:24.366Z,101559.41
2023-04-07T06:07:50.781Z,101566.34
2023-04-07T06:10:17.370Z,101564.63
2023-04-07T06:12:43.785Z,101569.94
2023-04-07T06:15:10.578Z,101567.50
2023-04-07T06:17:36.936Z,101569.41
2023-04-07T06:20:03.728Z,101572.13
2023-04-07T06:22:30.121Z,101575.66
2023-04-07T06:24:56.398Z,101580.25
2023-04-07T06:27:22.826Z,101582.97
2023-04-07T06:29:49.235Z,101579.66
2023-04-07T06:32:15.529Z,101586.75
2023-04-07T06:34:41.904Z,101576.63
2023-04-07T06:37:08.362Z,101588.94
2023-04-07T06:39:34.732Z,101591.69
2023-04-07T06:42:01.555Z,101588.31
2023-04-07T06:44:27.865Z,101589.28
2023-04-07T06:46:55.360Z,101588.47
2023-04-07T06:49:21.774Z,101589.53
2023-04-07T06:51:48.115Z,101590.63
2023-04-07T06:54:15.352Z,101583.16
2023-04-07T06:56:42.369Z,101591.97
2023-04-07T06:59:09.464Z,101603.41
2023-04-07T07:01:37.618Z,101590.72
2023-04-07T07:04:05.868Z,101596.22
2023-04-07T07:06:32.788Z,101595.44
2023-04-07T07:09:00.352Z,101595.44
2023-04-07T07:11:27.175Z,101599.81
2023-04-07T07:13:53.464Z,101599.00
2023-04-07T07:16:20.050Z,101603.31
2023-04-07T07:18:46.528Z,101609.53
2023-04-07T07:21:13.274Z,101602.81
2023-04-07T07:23:39.590Z,101613.34
2023-04-07T07:26:05.979Z,101605.72
2023-04-07T07:28:32.305Z,101610.16
2023-04-07T07:30:58.614Z,101606.00
2023-04-07T07:33:24.994Z,101614.91
2023-04-07T07:35:51.461Z,101618.44
2023-04-07T07:38:17.763Z,101621.06
2023-04-07T07:40:44.133Z,101625.31
2023-04-07T07:43:10.435Z,101624.50
2023-04-07T07:45:36.785Z,101626.44
2023-04-07T07:48:03.295Z,101627.53
2023-04-07T07:50:30.257Z,101627.69
2023-04-07T07:52:56.558Z,101632.09
2023-04-07T07:55:22.872Z,101632.28
2023-04-07T07:57:49.185Z,101634.88
2023-04-07T08:00:15.589Z,101637.50
2023-04-07T08:02:41.970Z,101642.06
2023-04-07T08:05:08.629Z,101643.84
2023-04-07T08:07:35.525Z,101639.53
2023-04-07T08:10:02.007Z,101644.00
2023-04-07T08:12:28.292Z,101643.91
2023-04-07T08:14:54.667Z,101647.44
2023-04-07T08:17:20.988Z,101647.53
2023-04-07T08:19:47.507Z,101655.44
2023-04-07T08:22:13.874Z,101652.00
2023-04-07T08:24:40.234Z,101651.22
2023-04-07T08:27:06.707Z,101648.63
2023-04-07T08:29:33.076Z,101651.97
2023-04-07T08:31:59.533Z,101658.09
2023-04-07T08:34:26.390Z,101658.22
2023-04-07T08:36:52.767Z,101649.69
2023-04-07T08:39:19.421Z,101650.72
2023-04-07T08:41:47.113Z,101643.72
2023-04-07T08:44:15.118Z,101651.47
2023-04-07T08:46:43.106Z,101662.84
2023-04-07T08:49:13.628Z,101659.16
2023-04-07T08:51:46.367Z,101658.28
2023-04-07T08:54:15.073Z,101655.78
2023-04-07T08:56:43.019Z,101662.03
2023-04-07T08:59:11.847Z,101660.38
2023-04-07T09:01:39.385Z,101666.31
2023-04-07T09:04:07.448Z,101668.84
2023-04-07T09:06:36.444Z,101664.66
2023-04-07T09:09:06.103Z,101659.47
2023-04-07T09:11:37.004Z,101656.88
2023-04-07T09:14:03.461Z,101656.91
2023-04-07T09:16:31.058Z,101656.00
2023-04-07T09:18:58.283Z,101662.06
2023-04-07T09:21:24.664Z,101659.47
2023-04-07T09:23:51.077Z,101656.88
2023-04-07T09:26:25.530Z,101658.63
2023-04-07T09:28:54.047Z,101662.06
2023-04-07T09:31:23.322Z,101655.13
2023-04-07T09:33:50.135Z,101659.47
2023-04-07T09:36:16.640Z,101653.41
2023-04-07T09:38:45.275Z,101652.56
2023-04-07T09:41:16.866Z,101652.56
2023-04-07T09:43:45.366Z,101658.66
2023-04-07T09:46:19.005Z,101656.06
2023-04-07T09:48:46.462Z,101650.00
2023-04-07T09:51:15.519Z,101651.72
2023-04-07T09:53:43.977Z,101648.22
2023-04-07T09:56:11.578Z,101653.44
2023-04-07T09:58:40.328Z,101648.22
2023-04-07T10:01:09.475Z,101651.69
2023-04-07T10:03:37.064Z,101649.06
2023-04-07T10:06:04.382Z,101645.63
2023-04-07T10:08:32.854Z,101647.38
2023-04-07T10:11:01.765Z,101643.06
2023-04-07T10:13:29.914Z,101654.31
2023-04-07T10:15:57.481Z,101652.56
2023-04-07T10:18:31.561Z,101649.13
2023-04-07T10:21:01.818Z,101654.31
2023-04-07T10:23:39.774Z,101651.72
2023-04-07T10:26:07.974Z,101650.84
2023-04-07T10:28:38.694Z,101653.44
2023-04-07T10:31:05.335Z,101655.19
2023-04-07T10:33:53.226Z,101657.78
2023-04-07T10:36:22.991Z,101657.81
2023-04-07T10:39:09.195Z,101656.06
2023-04-07T10:41:40.485Z,101658.66
2023-04-07T10:44:09.055Z,101663.88
2023-04-07T10:46:48.264Z,101660.41
2023-04-07T10:49:18.442Z,101659.53
2023-04-07T10:52:09.225Z,101656.94
2023-04-07T10:54:35.708Z,101660.41
2023-04-07T10:57:08.335Z,101658.66
2023-04-07T10:59:34.659Z,101653.44
2023-04-07T11:02:13.632Z,101657.81
2023-04-07T11:04:45.463Z,101664.75
2023-04-07T11:07:13.892Z,101655.19
2023-04-07T11:09:40.884Z,101652.59
2023-04-07T11:12:07.673Z,101661.25
2023-04-07T11:14:37.379Z,101659.53
2023-04-07T11:17:04.395Z,101656.06
2023-04-07T11:19:32.384Z,101653.47
2023-04-07T11:22:28.703Z,101654.31
2023-04-07T11:24:56.923Z,101651.69
2023-04-07T11:27:23.529Z,101662.97
2023-04-07T11:29:50.216Z,101653.47
2023-04-07T11:32:24.262Z,101655.19
2023-04-07T11:34:52.311Z,101649.97
2023-04-07T11:37:27.279Z,101658.66
2023-04-07T11:39:58.700Z,101658.66
2023-04-07T11:42:35.711Z,101651.66
2023-04-07T11:45:02.243Z,101661.25
2023-04-07T11:47:38.783Z,101655.22
2023-04-07T11:50:06.059Z,101657.81
2023-04-07T11:52:48.415Z,101658.66
2023-04-07T11:55:22.573Z,101660.38
2023-04-07T11:57:51.098Z,101663.88
2023-04-07T12:00:18.391Z,101662.13
2023-04-07T12:02:44.899Z,101663.88
2023-04-07T12:05:11.643Z,101663.84
2023-04-07T12:07:39.307Z,101662.16
2023-04-07T12:10:19.894Z,101654.31
2023-04-07T12:12:46.786Z,101660.41
2023-04-07T12:15:13.667Z,101664.72
2023-04-07T12:17:45.606Z,101659.50
2023-04-07T12:20:12.239Z,101656.06
2023-04-07T12:22:38.570Z,101654.28
2023-04-07T12:25:05.313Z,101655.94
2023-04-07T12:27:42.160Z,101654.28
2023-04-07T12:30:10.091Z,101664.72
2023-04-07T12:32:37.676Z,101659.50
2023-04-07T12:35:04.203Z,101663.84
2023-04-07T12:37:31.568Z,101666.47
2023-04-07T12:39:58.631Z,101669.94
2023-04-07T12:42:25.365Z,101662.97
2023-04-07T12:44:51.637Z,101666.41
2023-04-07T12:47:17.996Z,101675.06
2023-04-07T12:49:44.284Z,101670.75
2023-04-07T12:52:10.602Z,101670.75
2023-04-07T12:54:36.932Z,101668.09
2023-04-07T12:57:03.320Z,101664.63
2023-04-07T12:59:30.240Z,101676.03
2023-04-07T13:01:56.890Z,101673.41
2023-04-07T13:04:24.737Z,101669.91
2023-04-07T13:06:51.201Z,101668.13
2023-04-07T13:09:17.473Z,101672.50
2023-04-07T13:11:43.792Z,101677.75
2023-04-07T13:14:10.160Z,101681.22
2023-04-07T13:16:36.529Z,101676.00
2023-04-07T13:19:03.951Z,101678.66
2023-04-07T13:23:59.540Z,101686.47
2023-04-07T13:26:26.476Z,101681.25
2023-04-07T13:28:52.946Z,101682.09
2023-04-07T13:31:21.713Z,101681.25
2023-04-07T13:33:48.330Z,101688.19
2023-04-07T13:36:14.805Z,101687.31
2023-04-07T13:38:42.394Z,101682.09
2023-04-07T13:41:08.722Z,101680.31
2023-04-07T13:43:35.499Z,101680.25
2023-04-07T13:46:01.832Z,101687.25
2023-04-07T13:48:28.351Z,101689.81
2023-04-07T13:50:54.652Z,101688.00
2023-04-07T13:53:21.718Z,101691.47
2023-04-07T13:55:48.109Z,101683.72
2023-04-07T13:58:14.537Z,101687.16
2023-04-07T14:00:40.936Z,101693.19
2023-04-07T14:03:07.889Z,101690.59
2023-04-07T14:05:35.623Z,101696.50
2023-04-07T14:08:02.012Z,101696.47
2023-04-07T14:10:29.161Z,101700.66
2023-04-07T14:12:56.130Z,101709.25
2023-04-07T14:15:22.517Z,101698.75
2023-04-07T14:17:48.874Z,101698.56
2023-04-07T14:20:15.380Z,101700.13
2023-04-07T14:22:41.667Z,101702.66
2023-04-07T14:25:08.074Z,101700.00
2023-04-07T14:27:34.427Z,101697.22
2023-04-07T14:30:01.435Z,101708.34
2023-04-07T14:32:29.420Z,101709.78
2023-04-07T14:34:56.423Z,101709.06
2023-04-07T14:37:26.151Z,101707.28
2023-04-07T14:40:02.587Z,101708.84
2023-04-07T14:42:29.998Z,101703.59
2023-04-07T14:44:56.556Z,101711.53
2023-04-07T14:47:22.934Z,101713.41
2023-04-07T14:49:51.116Z,101721.31
2023-04-07T14:52:19.347Z,101715.22
2023-04-07T14:54:45.585Z,101720.19
2023-04-07T14:57:12.146Z,101718.06
2023-04-07T14:59:38.431Z,101721.56
2023-04-07T15:02:04.732Z,101724.97
2023-04-07T15:04:31.861Z,101723.38
2023-04-07T15:06:58.208Z,101730.84
2023-04-07T15:09:24.648Z,101727.44
2023-04-07T15:11:50.938Z,101731.66
2023-04-07T15:14:17.308Z,101728.22
2023-04-07T15:16:43.905Z,101733.47
2023-04-07T15:19:10.250Z,101743.94
2023-04-07T15:21:36.557Z,101735.16
2023-04-07T15:24:02.953Z,101742.16
2023-04-07T15:26:29.351Z,101742.75
2023-04-07T15:28:55.692Z,101746.25
2023-04-07T15:31:23.196Z,101741.81
2023-04-07T15:33:49.872Z,101744.53
2023-04-07T15:36:16.450Z,101751.34
2023-04-07T15:38:42.792Z,101748.56
2023-04-07T15:41:09.144Z,101749.31
2023-04-07T15:43:36.688Z,101752.44
2023-04-07T15:46:03.101Z,101751.56
2023-04-07T15:48:29.433Z,101760.19
2023-04-07T15:50:55.803Z,101748.94
2023-04-07T15:53:22.250Z,101752.31
2023-04-07T15:55:48.622Z,101753.84
2023-04-07T15:58:15.226Z,101752.31
2023-04-07T16:00:41.927Z,101760.19
2023-04-07T16:03:08.279Z,101754.97
2023-04-07T16:05:34.716Z,101753.44
2023-04-07T16:08:01.051Z,101757.72
2023-04-07T16:10:27.393Z,101754.09
2023-04-07T16:12:53.802Z,101759.22
2023-04-07T16:15:28.962Z,101763.22
2023-04-07T16:18:08.257Z,101766.03
2023-04-07T16:20:34.664Z,101765.66
2023-04-07T16:23:01.186Z,101767.44
2023-04-07T16:25:28.008Z,101776.81
2023-04-07T16:27:54.415Z,101776.69
2023-04-07T16:30:21.011Z,101774.97
2023-04-07T16:32:47.501Z,101777.63
2023-04-07T16:35:14.706Z,101771.63
2023-04-07T16:37:41.979Z,101777.56
2023-04-07T16:40:09.790Z,101785.94
2023-04-07T16:42:36.545Z,101781.59
2023-04-07T16:45:03.604Z,101783.25
2023-04-07T16:47:31.433Z,101781.53
2023-04-07T16:49:58.793Z,101787.63
2023-04-07T16:52:25.273Z,101790.03
2023-04-07T16:54:51.773Z,101793.53
2023-04-07T16:57:18.102Z,101798.59
2023-04-07T16:59:44.459Z,101798.41
2023-04-07T17:02:13.662Z,101806.16
2023-04-07T17:04:41.072Z,101807.66
2023-04-07T17:07:07.726Z,101817.19
2023-04-07T17:09:34.117Z,101819.75
2023-04-07T17:12:01.582Z,101819.75
2023-04-07T17:14:28.563Z,101822.41
2023-04-07T17:16:54.909Z,101830.03
2023-04-07T17:19:21.419Z,101828.97
2023-04-07T17:21:47.738Z,101834.75
2023-04-07T17:24:15.783Z,101845.00
2023-04-07T17:26:43.615Z,101847.72
2023-04-07T17:29:10.518Z,101852.78
2023-04-07T17:31:36.826Z,101857.00
2023-04-07T17:34:03.242Z,101862.16
2023-04-07T17:36:32.567Z,101862.22
2023-04-07T17:38:59.843Z,101855.28
2023-04-07T17:41:28.158Z,101857.78
2023-04-07T17:43:54.774Z,101855.00
2023-04-07T17:46:23.950Z,101852.34
2023-04-07T17:48:54.306Z,101852.28
2023-04-07T17:51:20.642Z,101861.81
2023-04-07T17:53:47.132Z,101873.22
2023-04-07T17:56:13.680Z,101859.97
2023-04-07T17:58:41.032Z,101876.53
2023-04-07T18:01:09.704Z,101879.97
2023-04-07T18:03:36.374Z,101880.78
2023-04-07T18:06:02.737Z,101883.25
2023-04-07T18:08:30.272Z,101887.53
2023-04-07T18:10:56.599Z,101896.13
2023-04-07T18:13:22.882Z,101895.28
2023-04-07T18:15:49.215Z,101883.34
2023-04-07T18:18:15.932Z,101893.66
2023-04-07T18:20:42.245Z,101884.94
2023-04-07T18:23:09.447Z,101896.97
2023-04-07T18:25:36.394Z,101903.84
2023-04-07T18:28:02.727Z,101897.91
2023-04-07T18:30:29.281Z,101900.59
2023-04-07T18:32:55.705Z,101900.41
2023-04-07T18:35:22.013Z,101903.94
2023-04-07T18:37:49.576Z,101910.13
2023-04-07T18:40:16.276Z,101908.59
2023-04-07T18:42:42.799Z,101913.75
2023-04-07T18:45:09.492Z,101918.09
2023-04-07T18:47:35.823Z,101926.69
2023-04-07T18:50:02.154Z,101910.03
2023-04-07T18:52:28.447Z,101916.78
2023-04-07T18:54:54.827Z,101924.50
2023-04-07T18:57:21.203Z,101927.03
2023-04-07T18:59:47.490Z,101930.47
2023-04-07T19:02:13.903Z,101930.53
2023-04-07T19:04:40.557Z,101927.69
2023-04-07T19:07:06.890Z,101935.66
2023-04-07T19:09:33.269Z,101931.25
2023-04-07T19:11:59.707Z,101937.38
2023-04-07T19:14:26.096Z,101937.38
2023-04-07T19:16:52.654Z,101939.25
2023-04-07T19:19:19.033Z,101939.19
2023-04-07T19:21:45.693Z,101943.63
2023-04-07T19:24:12.005Z,101948.00
2023-04-07T19:26:38.373Z,101947.63
2023-04-07T19:29:04.738Z,101941.78
2023-04-07T19:31:31.202Z,101941.91
2023-04-07T19:33:58.387Z,101941.78
2023-04-07T19:36:26.318Z,101942.69
2023-04-07T19:38:52.752Z,101944.19
2023-04-07T19:41:19.096Z,101944.47
2023-04-07T19:43:45.413Z,101948.00
2023-04-07T19:46:11.756Z,101941.13
2023-04-07T19:48:38.161Z,101942.09
2023-04-07T19:51:07.126Z,101949.44
2023-04-07T19:53:33.721Z,101949.13
2023-04-07T19:56:02.080Z,101952.72
2023-04-07T19:58:28.345Z,101946.69
2023-04-07T20:00:54.999Z,101949.25
2023-04-07T20:03:21.994Z,101953.63
2023-04-07T20:05:48.448Z,101940.91
2023-04-07T20:08:14.752Z,101945.19
2023-04-07T20:10:41.148Z,101951.13
2023-04-07T20:13:08.970Z,101945.88
2023-04-07T20:15:35.247Z,101947.53
2023-04-07T20:18:01.682Z,101953.59
2023-04-07T20:20:28.081Z,101951.06
2023-04-07T20:22:54.366Z,101951.28
2023-04-07T20:25:20.903Z,101953.81
2023-04-07T20:27:49.109Z,101957.41
2023-04-07T20:30:16.195Z,101958.41
2023-04-07T20:32:43.261Z,101965.25
2023-04-07T20:35:09.870Z,101964.34
2023-04-07T20:37:36.130Z,101960.84
2023-04-07T20:40:03.050Z,101959.91
2023-04-07T20:42:29.324Z,101965.22
2023-04-07T20:45:02.146Z,101962.56
2023-04-07T20:47:28.581Z,101964.38
2023-04-07T20:49:55.203Z,101967.56
2023-04-07T20:52:21.570Z,101969.38
2023-04-07T20:54:48.310Z,101965.94
2023-04-07T20:57:14.623Z,101974.59
2023-04-07T20:59:40.958Z,101973.91
2023-04-07T21:02:07.443Z,101963.44
2023-04-07T21:04:34.176Z,101973.97
2023-04-07T21:07:00.496Z,101963.59
2023-04-07T21:09:26.775Z,101960.06
2023-04-07T21:11:53.140Z,101967.00
2023-04-07T21:14:19.450Z,101965.50
2023-04-07T21:16:45.816Z,101965.38
2023-04-07T21:19:12.078Z,101962.78
2023-04-07T21:21:38.410Z,101965.94
2023-04-07T21:24:05.005Z,101960.78
2023-04-07T21:26:31.300Z,101968.53
2023-04-07T21:28:57.612Z,101962.59
2023-04-07T21:31:24.743Z,101964.44
2023-04-07T21:33:52.577Z,101957.59
2023-04-07T21:36:19.239Z,101962.94
2023-04-07T21:38:45.746Z,101958.72
2023-04-07T21:41:12.056Z,101960.34
2023-04-07T21:43:38.342Z,101962.00
2023-04-07T21:46:04.741Z,101956.97
2023-04-07T21:48:30.991Z,101961.44
2023-04-07T21:50:57.644Z,101970.97
2023-04-07T21:53:24.019Z,101965.03
2023-04-07T21:55:50.359Z,101969.34
2023-04-07T21:58:16.617Z,101967.53
2023-04-07T22:00:42.927Z,101962.28
2023-04-07T22:03:09.868Z,101959.78
2023-04-07T22:05:36.468Z,101964.00
2023-04-07T22:08:03.132Z,101959.75
2023-04-07T22:10:29.553Z,101961.53
2023-04-07T22:12:55.949Z,101963.09
2023-04-07T22:15:22.441Z,101962.28
2023-04-07T22:17:48.765Z,101966.69
2023-04-07T22:20:15.823Z,101958.00
2023-04-07T22:22:42.978Z,101962.44
2023-04-07T22:25:09.528Z,101964.03
2023-04-07T22:27:35.868Z,101966.53
2023-04-07T22:30:03.657Z,101970.91
2023-04-07T22:32:30.012Z,101964.22
2023-04-07T22:34:56.348Z,101972.75
2023-04-07T22:37:22.599Z,101975.06
2023-04-07T22:39:49.058Z,101970.63
2023-04-07T22:42:15.337Z,101975.69
2023-04-07T22:44:41.639Z,101979.94
2023-04-07T22:47:08.040Z,101975.78
2023-04-07T22:49:34.427Z,101982.59
2023-04-07T22:52:00.724Z,101978.94
2023-04-07T22:54:27.019Z,101979.88
2023-04-07T22:56:54.828Z,101980.84
2023-04-07T22:59:21.352Z,101979.78
2023-04-07T23:01:47.752Z,101976.34
2023-04-07T23:04:14.153Z,101975.50
2023-04-07T23:06:43.267Z,101986.03
2023-04-07T23:09:10.224Z,101981.66
2023-04-07T23:11:36.666Z,101979.31
2023-04-07T23:14:05.869Z,101985.91
2023-04-07T23:16:35.308Z,101984.25
2023-04-07T23:19:01.944Z,101975.63
2023-04-07T23:21:31.239Z,101978.22
2023-04-07T23:23:57.870Z,101980.75
2023-04-07T23:26:24.179Z,101975.75
2023-04-07T23:28:50.818Z,101978.44
2023-04-07T23:31:17.488Z,101978.44
2023-04-07T23:33:43.845Z,101976.66
2023-04-07T23:36:10.123Z,101978.44
2023-04-07T23:38:36.407Z,101981.88
2023-04-07T23:41:03.071Z,101982.63
2023-04-07T23:43:29.348Z,101980.94
2023-04-07T23:45:56.477Z,101986.19
2023-04-07T23:48:24.152Z,101986.19
2023-04-07T23:50:51.196Z,101982.69
2023-04-07T23:53:17.870Z,101982.69
2023-04-07T23:55:44.171Z,101980.84
2023-04-07T23:58:11.109Z,101982.59
